createdAt,value
2023-04-01T00:00:54.381Z,9.93
2023-04-01T00:03:21.794Z,9.82
2023-04-01T00:05:48.524Z,9.85
2023-04-01T00:08:15.054Z,9.78
2023-04-01T00:10:41.428Z,9.85
2023-04-01T00:13:08.219Z,9.82
2023-04-01T00:15:34.988Z,9.80
2023-04-01T00:18:01.892Z,9.87
2023-04-01T00:20:29.326Z,9.75
2023-04-01T00:22:56.010Z,9.81
2023-04-01T00:25:23.080Z,9.88
2023-04-01T00:27:50.269Z,9.72
2023-04-01T00:30:17.318Z,9.78
2023-04-01T00:32:43.770Z,9.64
2023-04-01T00:35:11.142Z,9.73
2023-04-01T00:37:38.371Z,9.70
2023-04-01T00:40:07.322Z,9.76
2023-04-01T00:42:33.718Z,9.67
2023-04-01T00:45:36.268Z,9.62
2023-04-01T00:48:07.288Z,9.69
2023-04-01T00:50:35.364Z,9.59
2023-04-01T00:53:02.220Z,9.61
2023-04-01T00:55:52.450Z,9.57
2023-04-01T00:58:21.871Z,9.57
2023-04-01T01:00:49.522Z,9.64
2023-04-01T01:03:16.093Z,9.64
2023-04-01T01:06:08.486Z,9.63
2023-04-01T01:08:52.286Z,9.56
2023-04-01T01:11:24.013Z,9.65
2023-04-01T01:13:59.266Z,9.65
2023-04-01T01:16:31.316Z,9.68
2023-04-01T01:19:08.901Z,9.70
2023-04-01T01:21:50.424Z,9.72
2023-04-01T01:24:28.798Z,9.77
2023-04-01T01:27:10.269Z,9.69
2023-04-01T01:30:11.080Z,9.68
2023-04-01T01:33:15.385Z,9.81
2023-04-01T01:35:47.538Z,9.66
2023-04-01T01:38:14.986Z,9.52
2023-04-01T01:40:43.914Z,9.48
2023-04-01T01:43:13.959Z,9.48
2023-04-01T01:45:44.084Z,9.53
2023-04-01T01:48:12.132Z,9.47
2023-04-01T01:50:40.172Z,9.58
2023-04-01T01:53:09.820Z,9.54
2023-04-01T01:55:41.417Z,9.47
2023-04-01T01:58:18.954Z,9.48
2023-04-01T02:00:49.634Z,9.43
2023-04-01T02:03:16.604Z,9.46
2023-04-01T02:05:43.286Z,9.53
2023-04-01T02:08:16.137Z,9.42
2023-04-01T02:10:46.636Z,9.41
2023-04-01T02:13:21.217Z,9.30
2023-04-01T02:15:48.878Z,9.36
2023-04-01T02:18:16.374Z,9.32
2023-04-01T02:20:43.530Z,9.39
2023-04-01T02:23:11.227Z,9.46
2023-04-01T02:25:38.638Z,9.35
2023-04-01T02:28:06.812Z,9.52
2023-04-01T02:30:35.298Z,9.41
2023-04-01T02:33:02.579Z,9.48
2023-04-01T02:35:29.069Z,9.54
2023-04-01T02:37:55.930Z,9.57
2023-04-01T02:40:22.428Z,9.52
2023-04-01T02:42:48.860Z,9.51
2023-04-01T02:45:15.660Z,9.55
2023-04-01T02:47:42.162Z,9.45
2023-04-01T02:50:09.528Z,9.48
2023-04-01T02:52:35.896Z,9.45
2023-04-01T02:55:03.061Z,9.55
2023-04-01T02:57:30.120Z,9.47
2023-04-01T02:59:56.640Z,9.47
2023-04-01T03:02:23.144Z,9.36
2023-04-01T03:04:49.591Z,9.45
2023-04-01T03:07:15.982Z,9.35
2023-04-01T03:09:42.362Z,9.32
2023-04-01T03:12:08.758Z,9.41
2023-04-01T03:14:35.291Z,9.43
2023-04-01T03:17:01.862Z,9.44
2023-04-01T03:19:28.339Z,9.36
2023-04-01T03:21:54.728Z,9.45
2023-04-01T03:24:21.410Z,9.33
2023-04-01T03:26:47.804Z,9.42
2023-04-01T03:29:16.518Z,9.39
2023-04-01T03:31:42.941Z,9.48
2023-04-01T03:34:09.879Z,9.34
2023-04-01T03:36:36.398Z,9.32
2023-04-01T03:39:04.564Z,9.20
2023-04-01T03:41:31.672Z,9.25
2023-04-01T03:43:58.179Z,9.28
2023-04-01T03:46:24.620Z,9.28
2023-04-01T03:48:51.027Z,9.17
2023-04-01T03:51:17.434Z,9.23
2023-04-01T03:53:43.829Z,9.22
2023-04-01T03:56:10.323Z,9.21
2023-04-01T03:58:37.318Z,9.26
2023-04-01T04:01:03.686Z,9.21
2023-04-01T04:03:30.830Z,9.32
2023-04-01T04:05:57.547Z,9.46
2023-04-01T04:08:23.953Z,9.44
2023-04-01T04:10:56.412Z,9.34
2023-04-01T04:13:22.789Z,9.40
2023-04-01T04:15:49.159Z,9.28
2023-04-01T04:18:15.677Z,9.35
2023-04-01T04:20:48.055Z,9.32
2023-04-01T04:23:14.442Z,9.26
2023-04-01T04:25:40.794Z,9.27
2023-04-01T04:28:07.174Z,9.24
2023-04-01T04:30:33.539Z,9.25
2023-04-01T04:32:59.955Z,9.19
2023-04-01T04:35:26.387Z,9.20
2023-04-01T04:37:52.852Z,9.21
2023-04-01T04:40:19.224Z,9.20
2023-04-01T04:42:46.015Z,9.18
2023-04-01T04:50:28.058Z,9.28
2023-04-01T04:52:54.397Z,9.12
2023-04-01T04:55:21.455Z,9.18
2023-04-01T04:57:48.034Z,9.22
2023-04-01T05:00:14.783Z,9.35
2023-04-01T05:02:41.321Z,9.23
2023-04-01T05:05:08.206Z,9.19
2023-04-01T05:07:34.711Z,9.24
2023-04-01T05:10:01.117Z,9.28
2023-04-01T05:12:27.489Z,9.33
2023-04-01T05:14:53.925Z,9.31
2023-04-01T05:17:20.364Z,9.30
2023-04-01T05:19:46.853Z,9.36
2023-04-01T05:22:13.211Z,9.39
2023-04-01T05:24:39.578Z,9.35
2023-04-01T05:27:05.981Z,9.35
2023-04-01T05:29:32.363Z,9.34
2023-04-01T05:31:58.733Z,9.31
2023-04-01T05:34:25.349Z,9.52
2023-04-01T05:36:53.052Z,9.49
2023-04-01T05:39:19.449Z,9.42
2023-04-01T05:41:46.132Z,9.57
2023-04-01T05:44:12.776Z,9.48
2023-04-01T05:46:39.367Z,9.48
2023-04-01T05:49:05.810Z,9.51
2023-04-01T05:51:32.303Z,9.52
2023-04-01T05:53:58.700Z,9.55
2023-04-01T05:56:25.290Z,9.69
2023-04-01T05:58:53.915Z,9.67
2023-04-01T06:01:20.324Z,9.62
2023-04-01T06:03:46.857Z,9.74
2023-04-01T06:06:32.921Z,9.64
2023-04-01T06:09:07.913Z,9.55
2023-04-01T06:11:37.231Z,9.68
2023-04-01T06:14:09.425Z,9.82
2023-04-01T06:16:53.884Z,9.82
2023-04-01T06:19:36.541Z,9.92
2023-04-01T06:22:05.692Z,9.87
2023-04-01T06:24:36.589Z,9.72
2023-04-01T06:27:28.029Z,9.75
2023-04-01T06:30:06.400Z,9.83
2023-04-01T06:32:51.457Z,9.82
2023-04-01T06:35:41.959Z,9.82
2023-04-01T06:38:19.804Z,9.76
2023-04-01T06:41:17.914Z,9.78
2023-04-01T06:43:56.470Z,9.87
2023-04-01T06:46:56.524Z,9.89
2023-04-01T06:49:34.822Z,9.78
2023-04-01T06:52:11.814Z,9.99
2023-04-01T06:54:41.143Z,9.97
2023-04-01T06:57:33.872Z,9.99
2023-04-01T07:00:02.815Z,10.10
2023-04-01T07:02:40.430Z,9.99
2023-04-01T07:05:07.919Z,9.92
2023-04-01T07:07:50.422Z,10.12
2023-04-01T07:10:20.841Z,10.07
2023-04-01T07:12:59.434Z,9.90
2023-04-01T07:15:32.238Z,9.89
2023-04-01T07:18:43.314Z,10.03
2023-04-01T07:21:20.738Z,9.79
2023-04-01T07:23:48.148Z,9.88
2023-04-01T07:26:23.195Z,9.96
2023-04-01T07:28:52.369Z,9.87
2023-04-01T07:31:43.254Z,9.88
2023-04-01T07:34:29.702Z,9.92
2023-04-01T07:37:32.037Z,9.87
2023-04-01T07:40:32.590Z,9.88
2023-04-01T07:43:23.514Z,9.89
2023-04-01T07:46:02.380Z,9.91
2023-04-01T07:48:39.408Z,9.99
2023-04-01T07:51:14.767Z,9.92
2023-04-01T07:53:50.703Z,9.98
2023-04-01T07:56:41.768Z,9.91
2023-04-01T07:59:23.400Z,9.95
2023-04-01T08:02:16.280Z,9.89
2023-04-01T08:04:57.403Z,9.76
2023-04-01T08:07:27.068Z,9.81
2023-04-01T08:10:14.185Z,10.05
2023-04-01T08:12:43.571Z,9.89
2023-04-01T08:15:23.332Z,10.03
2023-04-01T08:17:58.898Z,10.06
2023-04-01T08:20:31.530Z,10.11
2023-04-01T08:23:13.795Z,10.12
2023-04-01T08:25:50.495Z,10.09
2023-04-01T08:28:45.903Z,10.20
2023-04-01T08:31:20.897Z,10.18
2023-04-01T08:33:48.660Z,10.25
2023-04-01T08:36:22.378Z,10.27
2023-04-01T08:39:11.425Z,10.39
2023-04-01T08:41:42.922Z,10.52
2023-04-01T08:44:15.194Z,10.37
2023-04-01T08:46:53.150Z,10.41
2023-04-01T08:49:42.732Z,10.52
2023-04-01T08:52:22.536Z,10.57
2023-04-01T08:55:20.229Z,10.40
2023-04-01T08:57:51.463Z,10.34
2023-04-01T09:00:37.333Z,10.40
2023-04-01T09:03:10.282Z,10.49
2023-04-01T09:06:05.537Z,10.49
2023-04-01T09:08:56.994Z,10.54
2023-04-01T09:12:01.739Z,10.37
2023-04-01T09:15:02.753Z,10.44
2023-04-01T09:17:47.970Z,10.40
2023-04-01T09:20:39.422Z,10.24
2023-04-01T09:23:12.141Z,10.29
2023-04-01T09:26:04.763Z,10.28
2023-04-01T09:29:00.787Z,10.33
2023-04-01T09:31:49.684Z,10.41
2023-04-01T09:34:34.775Z,10.41
2023-04-01T09:37:08.299Z,10.46
2023-04-01T09:39:39.364Z,10.39
2023-04-01T09:42:35.356Z,10.30
2023-04-01T09:45:08.061Z,10.27
2023-04-01T09:47:37.341Z,10.30
2023-04-01T09:50:44.000Z,10.28
2023-04-01T09:53:35.197Z,10.43
2023-04-01T09:56:29.353Z,10.45
2023-04-01T09:59:22.774Z,10.33
2023-04-01T10:02:35.261Z,10.45
2023-04-01T10:05:40.933Z,10.27
2023-04-01T10:08:41.367Z,10.38
2023-04-01T10:11:22.968Z,10.43
2023-04-01T10:14:12.528Z,10.39
2023-04-01T10:17:17.786Z,10.52
2023-04-01T10:20:05.254Z,10.56
2023-04-01T10:22:37.457Z,10.64
2023-04-01T10:25:09.809Z,10.60
2023-04-01T10:27:57.943Z,10.75
2023-04-01T10:30:35.503Z,10.63
2023-04-01T10:33:23.302Z,10.78
2023-04-01T10:36:26.479Z,10.72
2023-04-01T10:39:31.069Z,10.80
2023-04-01T10:42:29.516Z,10.81
2023-04-01T10:45:33.608Z,10.95
2023-04-01T10:48:25.849Z,10.99
2023-04-01T10:51:06.759Z,11.07
2023-04-01T10:54:08.562Z,11.12
2023-04-01T10:56:41.439Z,11.01
2023-04-01T10:59:22.746Z,11.10
2023-04-01T11:02:10.015Z,11.03
2023-04-01T11:05:14.770Z,10.89
2023-04-01T11:08:02.769Z,11.03
2023-04-01T11:10:37.503Z,10.89
2023-04-01T11:13:38.101Z,10.79
2023-04-01T11:16:20.501Z,10.73
2023-04-01T11:19:17.188Z,10.96
2023-04-01T11:22:10.402Z,10.96
2023-04-01T11:24:43.591Z,11.07
2023-04-01T11:27:39.722Z,10.90
2023-04-01T11:30:42.254Z,11.07
2023-04-01T11:33:35.979Z,11.21
2023-04-01T11:36:20.879Z,11.38
2023-04-01T11:38:56.655Z,11.40
2023-04-01T11:42:07.558Z,11.01
2023-04-01T11:44:36.348Z,10.92
2023-04-01T11:47:34.139Z,10.88
2023-04-01T11:50:13.582Z,10.93
2023-04-01T11:53:11.045Z,11.04
2023-04-01T11:56:11.446Z,11.12
2023-04-01T11:59:09.777Z,11.16
2023-04-01T12:01:44.428Z,11.18
2023-04-01T12:04:32.460Z,11.39
2023-04-01T12:07:26.811Z,11.31
2023-04-01T12:10:05.097Z,11.27
2023-04-01T12:12:54.005Z,11.13
2023-04-01T12:15:42.014Z,10.91
2023-04-01T12:18:27.051Z,10.93
2023-04-01T12:21:16.400Z,11.07
2023-04-01T12:24:07.155Z,10.63
2023-04-01T12:26:56.435Z,11.02
2023-04-01T12:29:50.271Z,10.96
2023-04-01T12:32:25.905Z,10.94
2023-04-01T12:35:07.566Z,10.99
2023-04-01T12:37:46.946Z,11.03
2023-04-01T12:40:44.248Z,10.97
2023-04-01T12:43:41.654Z,10.95
2023-04-01T12:46:50.204Z,10.96
2023-04-01T12:49:16.479Z,10.88
2023-04-01T12:51:48.105Z,10.92
2023-04-01T12:54:46.459Z,10.95
2023-04-01T12:57:40.095Z,11.17
2023-04-01T13:00:20.001Z,10.99
2023-04-01T13:03:31.123Z,11.17
2023-04-01T13:06:16.890Z,11.05
2023-04-01T13:09:28.891Z,11.28
2023-04-01T13:12:19.849Z,11.39
2023-04-01T13:15:23.498Z,11.09
2023-04-01T13:18:14.322Z,11.07
2023-04-01T13:20:45.524Z,11.01
2023-04-01T13:23:17.899Z,11.21
2023-04-01T13:26:13.646Z,11.44
2023-04-01T13:28:50.859Z,11.37
2023-04-01T13:31:42.474Z,11.37
2023-04-01T13:34:20.860Z,11.54
2023-04-01T13:36:53.277Z,11.49
2023-04-01T13:39:40.727Z,11.39
2023-04-01T13:42:07.027Z,11.66
2023-04-01T13:44:49.547Z,11.49
2023-04-01T13:47:40.381Z,11.20
2023-04-01T13:50:44.444Z,11.42
2023-04-01T13:53:36.728Z,11.23
2023-04-01T13:56:15.232Z,11.37
2023-04-01T13:59:05.657Z,11.04
2023-04-01T14:01:42.435Z,10.89
2023-04-01T14:04:21.031Z,10.80
2023-04-01T14:06:59.077Z,11.08
2023-04-01T14:10:03.877Z,11.03
2023-04-01T14:12:47.387Z,10.81
2023-04-01T14:15:34.469Z,10.92
2023-04-01T14:18:04.028Z,10.98
2023-04-01T14:20:34.373Z,10.91
2023-04-01T14:23:23.222Z,10.57
2023-04-01T14:26:03.132Z,10.92
2023-04-01T14:28:54.716Z,11.15
2023-04-01T14:31:44.344Z,10.96
2023-04-01T14:34:13.476Z,11.00
2023-04-01T14:37:14.061Z,10.67
2023-04-01T14:40:00.293Z,10.59
2023-04-01T14:42:46.506Z,10.67
2023-04-01T14:45:21.784Z,10.89
2023-04-01T14:47:54.135Z,10.80
2023-04-01T14:50:25.600Z,11.07
2023-04-01T14:53:18.340Z,10.86
2023-04-01T14:55:44.611Z,10.62
2023-04-01T14:58:16.205Z,10.37
2023-04-01T15:01:05.770Z,10.91
2023-04-01T15:03:52.873Z,10.91
2023-04-01T15:06:35.926Z,10.75
2023-04-01T15:09:20.378Z,10.96
2023-04-01T15:12:01.364Z,11.06
2023-04-01T15:14:39.269Z,11.15
2023-04-01T15:17:24.098Z,11.00
2023-04-01T15:20:27.315Z,11.03
2023-04-01T15:22:59.929Z,11.15
2023-04-01T15:25:36.712Z,11.20
2023-04-01T15:28:16.985Z,11.22
2023-04-01T15:30:43.264Z,10.94
2023-04-01T15:33:18.274Z,11.04
2023-04-01T15:36:11.551Z,10.91
2023-04-01T15:39:01.829Z,10.79
2023-04-01T15:41:48.044Z,11.06
2023-04-01T15:44:51.851Z,10.86
2023-04-01T15:47:27.443Z,10.88
2023-04-01T15:50:18.260Z,11.03
2023-04-01T15:53:07.168Z,10.83
2023-04-01T15:55:49.443Z,10.93
2023-04-01T15:58:21.849Z,11.01
2023-04-01T16:01:16.076Z,11.15
2023-04-01T16:04:23.024Z,11.13
2023-04-01T16:07:00.906Z,11.15
2023-04-01T16:09:52.175Z,10.84
2023-04-01T16:12:57.632Z,11.17
2023-04-01T16:15:28.771Z,11.17
2023-04-01T16:18:33.712Z,11.14
2023-04-01T16:21:04.129Z,11.15
2023-04-01T16:23:51.518Z,11.13
2023-04-01T16:26:29.742Z,10.88
2023-04-01T16:29:01.274Z,11.14
2023-04-01T16:31:45.065Z,10.92
2023-04-01T16:34:27.556Z,11.20
2023-04-01T16:37:08.363Z,11.23
2023-04-01T16:39:46.645Z,11.17
2023-04-01T16:42:32.256Z,10.98
2023-04-01T16:45:09.438Z,10.90
2023-04-01T16:47:51.353Z,11.04
2023-04-01T16:50:24.896Z,11.05
2023-04-01T16:53:09.399Z,11.03
2023-04-01T16:55:48.272Z,11.01
2023-04-01T16:58:21.904Z,11.09
2023-04-01T17:01:01.451Z,10.98
2023-04-01T17:03:30.871Z,11.14
2023-04-01T17:06:32.054Z,11.18
2023-04-01T17:09:10.688Z,11.28
2023-04-01T17:11:44.599Z,11.26
2023-04-01T17:14:30.510Z,11.15
2023-04-01T17:17:18.610Z,11.09
2023-04-01T17:20:02.127Z,11.25
2023-04-01T17:22:52.919Z,11.24
2023-04-01T17:25:34.585Z,11.23
2023-04-01T17:28:25.439Z,11.13
2023-04-01T17:31:04.109Z,11.08
2023-04-01T17:33:50.714Z,11.21
2023-04-01T17:36:35.846Z,11.17
2023-04-01T17:39:21.067Z,11.15
2023-04-01T17:42:31.976Z,11.10
2023-04-01T17:45:23.399Z,11.25
2023-04-01T17:48:01.080Z,11.25
2023-04-01T17:51:04.634Z,10.86
2023-04-01T17:53:43.488Z,10.97
2023-04-01T17:56:29.871Z,11.00
2023-04-01T17:59:24.150Z,10.98
2023-04-01T18:02:15.904Z,11.12
2023-04-01T18:05:24.250Z,11.15
2023-04-01T18:08:05.209Z,11.03
2023-04-01T18:10:57.932Z,11.15
2023-04-01T18:13:25.324Z,11.15
2023-04-01T18:16:02.209Z,11.13
2023-04-01T18:18:43.673Z,11.25
2023-04-01T18:21:18.621Z,11.14
2023-04-01T18:24:02.420Z,11.20
2023-04-01T18:26:32.591Z,11.26
2023-04-01T18:29:05.332Z,11.21
2023-04-01T18:31:39.454Z,11.25
2023-04-01T18:34:17.504Z,11.14
2023-04-01T18:36:46.936Z,11.25
2023-04-01T18:39:18.012Z,11.31
2023-04-01T18:41:57.300Z,11.18
2023-04-01T18:44:30.199Z,11.20
2023-04-01T18:47:21.995Z,11.25
2023-04-01T18:50:08.572Z,11.31
2023-04-01T18:52:42.646Z,11.20
2023-04-01T18:55:14.994Z,11.20
2023-04-01T18:57:51.257Z,11.17
2023-04-01T19:00:28.066Z,11.22
2023-04-01T19:03:35.849Z,11.16
2023-04-01T19:06:14.779Z,11.30
2023-04-01T19:08:41.662Z,11.15
2023-04-01T19:11:28.094Z,10.31
2023-04-01T19:14:12.949Z,9.96
2023-04-01T19:17:10.746Z,10.06
2023-04-01T19:19:40.243Z,9.88
2023-04-01T19:22:44.316Z,9.76
2023-04-01T19:25:27.764Z,9.57
2023-04-01T19:28:03.587Z,9.59
2023-04-01T19:30:48.604Z,9.37
2023-04-01T19:33:48.976Z,9.34
2023-04-01T19:36:17.857Z,9.18
2023-04-01T19:38:53.970Z,9.24
2023-04-01T19:41:40.538Z,9.15
2023-04-01T19:44:19.084Z,9.21
2023-04-01T19:47:03.132Z,9.25
2023-04-01T19:49:51.462Z,9.35
2023-04-01T19:52:37.659Z,9.17
2023-04-01T19:55:51.383Z,9.10
2023-04-01T19:58:32.282Z,9.02
2023-04-01T20:01:00.432Z,9.23
2023-04-01T20:03:52.301Z,9.14
2023-04-01T20:06:36.959Z,9.17
2023-04-01T20:09:34.396Z,9.17
2023-04-01T20:12:12.992Z,9.13
2023-04-01T20:14:55.186Z,9.12
2023-04-01T20:17:25.402Z,9.14
2023-04-01T20:20:19.904Z,9.06
2023-04-01T20:22:46.379Z,9.03
2023-04-01T20:25:20.408Z,8.91
2023-04-01T20:28:19.824Z,9.09
2023-04-01T20:30:58.347Z,8.88
2023-04-01T20:34:02.595Z,9.09
2023-04-01T20:36:37.070Z,8.90
2023-04-01T20:39:25.239Z,8.90
2023-04-01T20:42:29.671Z,8.96
2023-04-01T20:45:11.692Z,8.67
2023-04-01T20:48:02.468Z,8.70
2023-04-01T20:50:47.657Z,8.34
2023-04-01T20:53:17.848Z,8.59
2023-04-01T20:55:47.287Z,8.51
2023-04-01T20:58:24.847Z,8.34
2023-04-01T21:01:36.694Z,8.53
2023-04-01T21:04:10.037Z,8.43
2023-04-01T21:06:45.562Z,8.46
2023-04-01T21:09:36.832Z,8.28
2023-04-01T21:12:15.310Z,8.40
2023-04-01T21:14:50.736Z,8.33
2023-04-01T21:17:23.188Z,8.28
2023-04-01T21:20:05.570Z,8.12
2023-04-01T21:22:37.805Z,8.25
2023-04-01T21:25:36.819Z,8.03
2023-04-01T21:28:12.681Z,7.87
2023-04-01T21:30:45.310Z,7.73
2023-04-01T21:33:23.765Z,7.87
2023-04-01T21:36:02.286Z,7.90
2023-04-01T21:39:04.002Z,7.83
2023-04-01T21:42:05.571Z,7.60
2023-04-01T21:44:34.710Z,7.63
2023-04-01T21:47:31.158Z,7.55
2023-04-01T21:50:29.912Z,7.69
2023-04-01T21:53:14.975Z,7.59
2023-04-01T21:56:09.313Z,7.52
2023-04-01T21:59:07.181Z,7.70
2023-04-01T22:01:48.777Z,7.71
2023-04-01T22:04:33.116Z,7.63
2023-04-01T22:07:19.054Z,7.70
2023-04-01T22:10:06.711Z,7.63
2023-04-01T22:12:38.321Z,7.42
2023-04-01T22:15:34.077Z,7.59
2023-04-01T22:18:10.407Z,7.55
2023-04-01T22:20:58.454Z,7.31
2023-04-01T22:23:37.125Z,7.34
2023-04-01T22:26:18.108Z,7.36
2023-04-01T22:29:17.874Z,7.15
2023-04-01T22:31:47.389Z,7.20
2023-04-01T22:34:51.117Z,7.20
2023-04-01T22:37:46.295Z,7.17
2023-04-01T22:40:21.826Z,7.29
2023-04-01T22:42:54.782Z,7.28
2023-04-01T22:45:38.552Z,7.25
2023-04-01T22:48:27.369Z,7.27
2023-04-01T22:51:14.967Z,7.29
2023-04-01T22:53:50.451Z,7.28
2023-04-01T22:56:21.145Z,7.14
2023-04-01T22:58:53.090Z,7.26
2023-04-01T23:01:25.812Z,6.96
2023-04-01T23:03:52.763Z,7.01
2023-04-01T23:06:27.061Z,7.01
2023-04-01T23:09:05.415Z,7.18
2023-04-01T23:11:48.095Z,7.17
2023-04-01T23:14:27.751Z,7.16
2023-04-01T23:17:13.612Z,7.00
2023-04-01T23:20:12.429Z,6.98
2023-04-01T23:23:05.173Z,6.87
2023-04-01T23:25:45.973Z,6.83
2023-04-01T23:28:15.367Z,6.61
2023-04-01T23:30:41.697Z,6.68
2023-04-01T23:33:21.514Z,6.79
2023-04-01T23:36:05.900Z,6.64
2023-04-01T23:38:35.404Z,6.84
2023-04-01T23:41:02.336Z,6.68
2023-04-01T23:43:34.650Z,6.68
2023-04-01T23:46:04.466Z,6.59
2023-04-01T23:48:42.875Z,6.61
2023-04-01T23:51:21.921Z,6.53
2023-04-01T23:53:49.137Z,6.47
2023-04-01T23:56:19.050Z,6.52
2023-04-01T23:58:48.776Z,6.43
